createdAt,value
2022-07-30T00:01:29.430Z,3.73
2022-07-30T00:04:01.253Z,5.40
2022-07-30T00:06:33.104Z,3.50
2022-07-30T00:09:04.828Z,3.53
2022-07-30T00:11:36.728Z,4.27
2022-07-30T00:14:08.726Z,3.83
2022-07-30T00:16:40.509Z,3.20
2022-07-30T00:19:12.876Z,4.10
2022-07-30T00:21:45.324Z,4.30
2022-07-30T00:24:17.078Z,3.63
2022-07-30T00:26:48.816Z,3.63
2022-07-30T00:29:20.745Z,3.80
2022-07-30T00:31:52.821Z,4.07
2022-07-30T00:34:24.602Z,5.27
2022-07-30T00:36:56.679Z,3.90
2022-07-30T00:39:30.339Z,3.97
2022-07-30T00:42:04.648Z,4.57
2022-07-30T00:44:36.421Z,3.77
2022-07-30T00:47:12.851Z,3.70
2022-07-30T00:49:44.676Z,4.77
2022-07-30T00:52:16.617Z,3.93
2022-07-30T00:54:48.392Z,4.23
2022-07-30T00:57:20.117Z,4.27
2022-07-30T00:59:52.013Z,4.47
2022-07-30T01:02:23.970Z,4.67
2022-07-30T01:04:55.749Z,5.13
2022-07-30T01:07:27.513Z,4.60
2022-07-30T01:09:59.277Z,4.20
2022-07-30T01:12:32.057Z,5.10
2022-07-30T01:15:06.629Z,5.07
2022-07-30T01:17:39.001Z,4.67
2022-07-30T01:20:17.618Z,4.93
2022-07-30T01:23:16.253Z,5.43
2022-07-30T01:26:18.834Z,5.37
2022-07-30T01:28:53.995Z,5.83
2022-07-30T01:31:28.417Z,5.67
2022-07-30T01:34:02.071Z,4.90
2022-07-30T01:36:34.239Z,8.30
2022-07-30T01:39:06.871Z,4.47
2022-07-30T01:41:39.645Z,5.43
2022-07-30T01:44:13.574Z,5.73
2022-07-30T01:46:47.412Z,6.10
2022-07-30T01:49:21.451Z,5.67
2022-07-30T01:51:54.750Z,6.10
2022-07-30T01:54:27.851Z,6.70
2022-07-30T01:57:02.334Z,6.40
2022-07-30T01:59:36.937Z,7.30
2022-07-30T02:02:08.679Z,6.70
2022-07-30T02:04:40.670Z,7.37
2022-07-30T02:07:19.902Z,6.53
2022-07-30T02:09:55.903Z,5.73
2022-07-30T02:12:30.967Z,6.37
2022-07-30T02:16:02.974Z,6.90
2022-07-30T02:18:45.739Z,6.30
2022-07-30T02:21:21.541Z,6.20
2022-07-30T02:23:56.411Z,6.63
2022-07-30T02:26:29.695Z,5.93
2022-07-30T02:29:03.209Z,6.17
2022-07-30T02:31:37.077Z,6.90
2022-07-30T02:34:10.295Z,6.97
2022-07-30T02:36:44.545Z,8.37
2022-07-30T02:39:17.646Z,7.17
2022-07-30T02:41:52.216Z,8.57
2022-07-30T02:44:26.677Z,8.80
2022-07-30T02:47:00.077Z,7.90
2022-07-30T02:50:00.210Z,7.70
2022-07-30T02:52:33.035Z,9.10
2022-07-30T02:55:06.683Z,8.80
2022-07-30T02:57:43.505Z,8.50
2022-07-30T03:00:15.977Z,8.97
2022-07-30T03:02:48.681Z,9.07
2022-07-30T03:05:21.403Z,9.23
2022-07-30T03:07:56.386Z,7.93
2022-07-30T03:10:29.007Z,7.87
2022-07-30T03:13:04.428Z,8.33
2022-07-30T03:15:39.512Z,6.90
2022-07-30T03:18:14.484Z,11.97
2022-07-30T03:20:52.656Z,9.37
2022-07-30T03:23:25.393Z,9.57
2022-07-30T03:26:01.643Z,9.50
2022-07-30T03:28:38.032Z,8.43
2022-07-30T03:31:10.598Z,8.70
2022-07-30T03:33:43.845Z,10.10
2022-07-30T03:36:17.036Z,9.60
2022-07-30T03:38:49.875Z,10.00
2022-07-30T03:41:23.103Z,9.60
2022-07-30T03:43:56.178Z,9.27
2022-07-30T03:46:28.880Z,8.87
2022-07-30T03:49:01.247Z,9.47
2022-07-30T03:51:35.993Z,8.47
2022-07-30T03:54:13.542Z,9.10
2022-07-30T03:56:46.161Z,9.00
2022-07-30T03:59:30.808Z,8.87
2022-07-30T04:02:05.863Z,7.87
2022-07-30T04:05:15.827Z,8.03
2022-07-30T04:07:48.208Z,7.73
2022-07-30T04:10:21.799Z,8.23
2022-07-30T04:13:05.418Z,7.63
2022-07-30T04:16:38.956Z,7.27
2022-07-30T04:19:05.358Z,8.23
2022-07-30T04:21:40.459Z,7.30
2022-07-30T04:24:17.271Z,8.60
2022-07-30T04:26:51.840Z,7.40
2022-07-30T04:29:25.100Z,7.40
2022-07-30T04:31:59.382Z,9.93
2022-07-30T04:34:51.471Z,9.60
2022-07-30T04:37:31.325Z,10.43
2022-07-30T04:40:03.605Z,11.40
2022-07-30T04:42:35.595Z,10.13
2022-07-30T04:45:11.601Z,10.80
2022-07-30T04:47:58.422Z,8.07
2022-07-30T04:50:53.595Z,8.23
2022-07-30T04:53:29.273Z,9.00
2022-07-30T04:56:05.381Z,10.17
2022-07-30T04:58:37.745Z,12.07
2022-07-30T05:01:10.489Z,10.63
2022-07-30T05:03:43.597Z,9.57
2022-07-30T05:06:16.667Z,11.43
2022-07-30T05:08:49.389Z,9.53
2022-07-30T05:11:21.148Z,8.53
2022-07-30T05:13:53.241Z,9.13
2022-07-30T05:16:27.566Z,7.97
2022-07-30T05:19:00.967Z,8.63
2022-07-30T05:21:33.272Z,8.20
2022-07-30T05:24:05.659Z,7.93
2022-07-30T05:26:53.477Z,7.17
2022-07-30T05:29:26.138Z,6.47
2022-07-30T05:32:04.296Z,8.00
2022-07-30T05:34:40.541Z,7.53
2022-07-30T05:37:12.576Z,7.97
2022-07-30T05:40:02.337Z,7.10
2022-07-30T05:43:04.262Z,7.40
2022-07-30T05:45:36.293Z,6.43
2022-07-30T05:48:08.355Z,7.17
2022-07-30T05:50:40.929Z,7.87
2022-07-30T05:53:12.671Z,8.47
2022-07-30T05:56:08.114Z,6.83
2022-07-30T05:59:02.011Z,7.10
2022-07-30T06:01:53.766Z,6.93
2022-07-30T06:04:32.637Z,7.63
2022-07-30T06:07:08.834Z,6.80
2022-07-30T06:09:41.613Z,7.67
2022-07-30T06:12:14.098Z,6.23
2022-07-30T06:14:46.461Z,6.83
2022-07-30T06:17:22.881Z,6.17
2022-07-30T06:20:20.266Z,6.93
2022-07-30T06:23:07.449Z,5.80
2022-07-30T06:25:59.341Z,6.47
2022-07-30T06:28:39.406Z,5.93
2022-07-30T06:31:30.047Z,6.97
2022-07-30T06:34:01.908Z,7.00
2022-07-30T06:36:39.178Z,6.87
2022-07-30T06:39:56.459Z,6.87
2022-07-30T06:42:24.513Z,6.10
2022-07-30T06:45:31.485Z,5.30
2022-07-30T06:48:19.331Z,6.00
2022-07-30T06:50:51.227Z,7.07
2022-07-30T06:53:23.137Z,9.53
2022-07-30T06:56:14.122Z,8.73
2022-07-30T06:58:53.274Z,8.17
2022-07-30T07:01:30.984Z,7.23
2022-07-30T07:04:04.175Z,9.40
2022-07-30T07:06:36.199Z,7.63
2022-07-30T07:09:08.156Z,7.27
2022-07-30T07:12:06.367Z,7.60
2022-07-30T07:14:38.199Z,8.60
2022-07-30T07:17:10.167Z,8.60
2022-07-30T07:20:03.005Z,6.63
2022-07-30T07:22:41.127Z,7.60
2022-07-30T07:25:13.753Z,8.10
2022-07-30T07:27:46.686Z,7.03
2022-07-30T07:30:38.546Z,5.60
2022-07-30T07:33:13.346Z,8.47
2022-07-30T07:35:50.324Z,5.93
2022-07-30T07:38:36.519Z,6.30
2022-07-30T07:41:08.283Z,7.07
2022-07-30T07:43:40.830Z,5.73
2022-07-30T07:46:17.202Z,5.93
2022-07-30T07:49:06.802Z,7.90
2022-07-30T07:51:57.466Z,6.60
2022-07-30T07:54:29.245Z,5.13
2022-07-30T07:57:03.016Z,6.13
2022-07-30T07:59:42.918Z,4.97
2022-07-30T08:02:20.290Z,4.30
2022-07-30T08:05:18.329Z,4.80
2022-07-30T08:08:06.372Z,5.00
2022-07-30T08:10:56.713Z,4.57
2022-07-30T08:13:52.553Z,3.93
2022-07-30T08:16:45.135Z,4.83
2022-07-30T08:19:35.980Z,3.73
2022-07-30T08:22:22.021Z,4.50
2022-07-30T08:24:53.934Z,4.43
2022-07-30T08:27:26.304Z,4.27
2022-07-30T08:29:58.578Z,4.10
2022-07-30T08:32:30.587Z,5.33
2022-07-30T08:35:05.633Z,3.37
2022-07-30T08:37:41.008Z,4.10
2022-07-30T08:40:13.343Z,4.23
2022-07-30T08:42:56.289Z,4.03
2022-07-30T08:45:35.138Z,3.93
2022-07-30T08:48:36.360Z,4.40
2022-07-30T08:51:08.884Z,3.80
2022-07-30T08:53:42.095Z,3.43
2022-07-30T08:56:13.922Z,4.00
2022-07-30T08:58:46.496Z,3.90
2022-07-30T09:01:22.466Z,4.67
2022-07-30T09:03:54.442Z,3.40
2022-07-30T09:06:26.437Z,3.53
2022-07-30T09:08:58.251Z,3.33
2022-07-30T09:11:30.421Z,3.33
2022-07-30T09:14:10.130Z,4.00
2022-07-30T09:16:43.860Z,3.23
2022-07-30T09:19:20.542Z,3.67
2022-07-30T09:22:00.729Z,2.97
2022-07-30T09:25:01.334Z,3.37
2022-07-30T09:27:49.939Z,3.53
2022-07-30T09:30:57.511Z,2.93
2022-07-30T09:33:48.170Z,3.10
2022-07-30T09:36:38.425Z,3.00
2022-07-30T09:39:38.704Z,3.70
2022-07-30T09:42:32.432Z,5.10
2022-07-30T09:45:14.684Z,2.80
2022-07-30T09:47:49.346Z,3.37
2022-07-30T09:50:30.353Z,2.80
2022-07-30T09:53:12.076Z,3.07
2022-07-30T09:55:46.074Z,4.97
2022-07-30T10:01:11.569Z,3.10
2022-07-30T10:04:09.666Z,3.50
2022-07-30T10:07:01.534Z,4.33
2022-07-30T10:09:48.907Z,3.60
2022-07-30T10:12:25.382Z,3.30
2022-07-30T10:15:01.796Z,3.10
2022-07-30T10:17:38.749Z,3.40
2022-07-30T10:20:30.414Z,3.63
2022-07-30T10:23:09.882Z,2.73
2022-07-30T10:26:07.025Z,2.67
2022-07-30T10:28:59.101Z,3.27
2022-07-30T10:31:46.784Z,3.33
2022-07-30T10:34:23.523Z,2.90
2022-07-30T10:37:04.627Z,2.80
2022-07-30T10:39:47.130Z,2.70
2022-07-30T10:42:34.289Z,2.00
2022-07-30T10:45:46.398Z,2.23
2022-07-30T10:48:19.726Z,3.07
2022-07-30T10:50:58.671Z,2.50
2022-07-30T10:53:48.734Z,2.30
2022-07-30T10:56:25.982Z,2.90
2022-07-30T10:59:03.419Z,1.90
2022-07-30T11:01:51.704Z,2.00
2022-07-30T11:04:29.645Z,2.00
2022-07-30T11:07:29.564Z,3.07
2022-07-30T11:10:05.226Z,1.97
2022-07-30T11:12:45.345Z,2.17
2022-07-30T11:15:19.205Z,2.07
2022-07-30T11:18:03.357Z,1.90
2022-07-30T11:20:36.946Z,2.03
2022-07-30T11:23:28.913Z,1.77
2022-07-30T11:26:07.337Z,1.60
2022-07-30T11:28:49.510Z,1.63
2022-07-30T11:31:56.414Z,1.57
2022-07-30T11:34:26.181Z,1.50
2022-07-30T11:37:32.508Z,1.60
2022-07-30T11:40:04.399Z,1.40
2022-07-30T11:42:39.663Z,1.00
2022-07-30T11:45:20.522Z,1.10
2022-07-30T11:47:55.648Z,1.83
2022-07-30T11:50:33.063Z,2.23
2022-07-30T11:53:10.086Z,1.37
2022-07-30T11:55:44.836Z,1.20
2022-07-30T11:58:27.482Z,4.93
2022-07-30T12:01:01.938Z,2.50
2022-07-30T12:03:33.761Z,1.23
2022-07-30T12:06:07.059Z,1.47
2022-07-30T12:08:43.707Z,1.20
2022-07-30T12:11:15.609Z,1.73
2022-07-30T12:14:01.999Z,1.30
2022-07-30T12:16:34.580Z,1.07
2022-07-30T12:19:06.832Z,1.10
2022-07-30T12:21:42.481Z,1.33
2022-07-30T12:24:14.795Z,1.30
2022-07-30T12:26:47.065Z,2.03
2022-07-30T12:29:19.097Z,1.10
2022-07-30T12:31:52.721Z,1.57
2022-07-30T12:34:26.106Z,2.40
2022-07-30T12:37:08.022Z,1.10
2022-07-30T12:39:40.426Z,1.77
2022-07-30T12:42:19.765Z,1.90
2022-07-30T12:44:51.544Z,1.23
2022-07-30T12:47:28.675Z,1.40
2022-07-30T12:50:02.402Z,2.43
2022-07-30T12:52:35.762Z,2.47
2022-07-30T12:55:10.267Z,2.80
2022-07-30T12:57:56.753Z,1.50
2022-07-30T13:00:31.505Z,2.23
2022-07-30T13:03:29.521Z,1.70
2022-07-30T13:06:02.064Z,3.43
2022-07-30T13:08:51.025Z,1.50
2022-07-30T13:11:25.332Z,2.33
2022-07-30T13:13:57.050Z,2.57
2022-07-30T13:16:32.029Z,1.50
2022-07-30T13:19:04.790Z,1.40
2022-07-30T13:21:36.669Z,2.30
2022-07-30T13:24:09.382Z,2.23
2022-07-30T13:26:50.772Z,1.73
2022-07-30T13:29:22.759Z,1.70
2022-07-30T13:31:54.557Z,3.30
2022-07-30T13:34:26.616Z,4.77
2022-07-30T13:36:58.350Z,3.00
2022-07-30T13:39:30.086Z,2.13
2022-07-30T13:42:01.925Z,4.70
2022-07-30T13:44:33.719Z,2.00
2022-07-30T13:47:08.512Z,2.80
2022-07-30T13:49:44.019Z,1.93
2022-07-30T13:52:15.825Z,2.07
2022-07-30T13:54:48.175Z,3.90
2022-07-30T13:57:20.069Z,2.00
2022-07-30T13:59:52.553Z,3.80
2022-07-30T14:02:24.294Z,1.70
2022-07-30T14:04:56.001Z,1.63
2022-07-30T14:07:27.733Z,1.50
2022-07-30T14:09:59.513Z,1.97
2022-07-30T14:12:31.245Z,1.63
2022-07-30T14:15:03.497Z,1.80
2022-07-30T14:17:35.460Z,3.50
2022-07-30T14:20:07.509Z,2.20
2022-07-30T14:22:39.790Z,1.70
2022-07-30T14:25:11.884Z,3.27
2022-07-30T14:27:43.860Z,1.77
2022-07-30T14:30:20.254Z,2.60
2022-07-30T14:32:58.141Z,1.77
2022-07-30T14:35:32.365Z,2.77
2022-07-30T14:38:04.341Z,2.33
2022-07-30T14:40:36.142Z,2.00
2022-07-30T14:43:08.007Z,1.50
2022-07-30T14:45:39.769Z,2.20
2022-07-30T14:48:11.462Z,1.93
2022-07-30T14:51:11.664Z,1.67
2022-07-30T14:53:35.063Z,1.67
2022-07-30T14:56:06.857Z,1.80
2022-07-30T14:58:38.568Z,1.50
2022-07-30T15:01:16.558Z,1.70
2022-07-30T15:03:48.822Z,2.30
2022-07-30T15:06:20.538Z,2.87
2022-07-30T15:08:52.937Z,3.17
2022-07-30T15:11:24.653Z,2.70
2022-07-30T15:13:57.377Z,1.50
2022-07-30T15:16:31.094Z,1.80
2022-07-30T15:19:02.839Z,3.90
2022-07-30T15:21:34.886Z,1.40
2022-07-30T15:24:06.635Z,1.20
2022-07-30T15:26:38.477Z,2.13
2022-07-30T15:29:13.320Z,4.03
2022-07-30T15:31:45.517Z,2.97
2022-07-30T15:34:17.218Z,2.00
2022-07-30T15:36:48.950Z,2.53
2022-07-30T15:39:20.701Z,2.37
2022-07-30T15:41:54.036Z,2.93
2022-07-30T15:44:25.821Z,1.73
2022-07-30T15:46:58.659Z,2.83
2022-07-30T15:49:30.439Z,4.00
2022-07-30T15:52:02.437Z,3.40
2022-07-30T15:54:34.809Z,1.60
2022-07-30T15:57:06.643Z,2.73
2022-07-30T15:59:38.534Z,2.30
2022-07-30T16:02:10.289Z,3.80
2022-07-30T16:04:42.003Z,1.37
2022-07-30T16:07:19.989Z,6.07
2022-07-30T16:09:51.771Z,4.63
2022-07-30T16:12:23.508Z,3.57
2022-07-30T16:14:55.222Z,2.20
2022-07-30T16:17:26.988Z,3.93
2022-07-30T16:19:58.698Z,3.53
2022-07-30T16:22:30.411Z,6.20
2022-07-30T16:25:02.205Z,2.97
2022-07-30T16:27:33.966Z,2.10
2022-07-30T16:30:06.236Z,3.60
2022-07-30T16:32:37.990Z,3.77
2022-07-30T16:35:13.111Z,2.47
2022-07-30T16:37:45.751Z,2.03
2022-07-30T16:40:17.465Z,1.97
2022-07-30T16:42:49.200Z,2.57
2022-07-30T16:45:21.384Z,2.60
2022-07-30T16:47:53.157Z,2.93
2022-07-30T16:50:24.911Z,4.07
2022-07-30T16:52:58.801Z,1.70
2022-07-30T16:55:30.602Z,2.00
2022-07-30T16:58:02.313Z,1.80
2022-07-30T17:00:34.140Z,3.40
2022-07-30T17:03:06.353Z,4.00
2022-07-30T17:05:38.130Z,3.07
2022-07-30T17:08:17.813Z,3.03
2022-07-30T17:10:49.737Z,3.70
2022-07-30T17:13:21.744Z,2.40
2022-07-30T17:15:53.542Z,2.77
2022-07-30T17:18:25.275Z,3.20
2022-07-30T17:20:57.058Z,1.83
2022-07-30T17:23:28.829Z,3.70
2022-07-30T17:26:00.564Z,3.13
2022-07-30T17:28:32.442Z,1.83
2022-07-30T17:31:04.217Z,2.00
2022-07-30T17:33:35.976Z,4.13
2022-07-30T17:36:08.480Z,2.13
2022-07-30T17:38:40.211Z,4.13
2022-07-30T17:41:13.590Z,2.60
2022-07-30T17:43:45.529Z,2.70
2022-07-30T17:46:17.310Z,2.30
2022-07-30T17:48:49.504Z,2.20
2022-07-30T17:51:21.362Z,2.60
2022-07-30T17:53:53.182Z,1.90
2022-07-30T17:56:26.926Z,2.00
2022-07-30T17:58:59.190Z,1.90
2022-07-30T18:01:31.156Z,2.50
2022-07-30T18:04:03.514Z,2.40
2022-07-30T18:06:35.956Z,3.20
2022-07-30T18:09:07.857Z,2.13
2022-07-30T18:11:39.558Z,2.03
2022-07-30T18:14:11.390Z,1.90
2022-07-30T18:16:43.372Z,3.00
2022-07-30T18:19:22.865Z,2.80
2022-07-30T18:22:02.188Z,2.03
2022-07-30T18:24:40.236Z,2.60
2022-07-30T18:27:12.627Z,1.80
2022-07-30T18:29:44.520Z,2.23
2022-07-30T18:32:16.223Z,3.17
2022-07-30T18:34:47.953Z,3.33
2022-07-30T18:37:19.681Z,3.20
2022-07-30T18:39:51.470Z,3.20
2022-07-30T18:42:23.245Z,2.27
2022-07-30T18:44:55.700Z,1.93
2022-07-30T18:47:27.720Z,2.40
2022-07-30T18:49:59.623Z,2.03
2022-07-30T18:52:31.488Z,1.87
2022-07-30T18:55:04.404Z,1.87
2022-07-30T18:57:36.234Z,2.13
2022-07-30T19:00:10.858Z,2.03
2022-07-30T19:03:03.266Z,1.90
2022-07-30T19:05:35.046Z,1.80
2022-07-30T19:08:09.720Z,2.37
2022-07-30T19:10:41.998Z,2.40
2022-07-30T19:13:13.735Z,1.47
2022-07-30T19:15:45.602Z,1.97
2022-07-30T19:18:17.786Z,1.83
2022-07-30T19:20:51.332Z,1.90
2022-07-30T19:23:23.152Z,2.17
2022-07-30T19:25:54.956Z,1.63
2022-07-30T19:28:28.517Z,2.00
2022-07-30T19:31:00.325Z,1.73
2022-07-30T19:33:32.120Z,2.00
2022-07-30T19:36:04.371Z,1.90
2022-07-30T19:38:39.756Z,3.70
2022-07-30T19:44:04.990Z,4.30
2022-07-30T19:46:41.419Z,2.13
2022-07-30T19:49:13.328Z,1.83
2022-07-30T19:52:10.146Z,2.30
2022-07-30T19:54:37.360Z,2.47
2022-07-30T19:57:09.217Z,3.40
2022-07-30T20:02:35.629Z,2.03
2022-07-30T20:05:10.911Z,1.87
2022-07-30T20:07:44.530Z,2.17
2022-07-30T20:10:16.891Z,1.90
2022-07-30T20:12:49.649Z,1.67
2022-07-30T20:15:22.166Z,2.07
2022-07-30T20:17:53.970Z,3.23
2022-07-30T20:23:17.686Z,1.80
2022-07-30T20:25:49.472Z,1.90
2022-07-30T20:28:22.066Z,1.83
2022-07-30T20:30:59.736Z,1.60
2022-07-30T20:33:36.103Z,1.60
2022-07-30T20:36:10.315Z,1.87
2022-07-30T20:38:44.531Z,1.93
2022-07-30T20:41:17.029Z,5.80
2022-07-30T20:43:51.935Z,11.60
2022-07-30T20:46:24.270Z,4.43
2022-07-30T20:48:56.195Z,2.83
2022-07-30T20:51:32.981Z,2.50
2022-07-30T20:54:05.843Z,2.73
2022-07-30T20:56:38.513Z,2.47
2022-07-30T20:59:10.327Z,2.40
2022-07-30T21:01:42.279Z,5.53
2022-07-30T21:04:23.666Z,3.23
2022-07-30T21:06:57.027Z,2.17
2022-07-30T21:09:29.266Z,2.73
2022-07-30T21:12:32.729Z,2.60
2022-07-30T21:15:23.074Z,2.60
2022-07-30T21:17:55.780Z,2.70
2022-07-30T21:20:28.301Z,3.23
2022-07-30T21:23:05.266Z,2.50
2022-07-30T21:25:59.980Z,2.73
2022-07-30T21:28:35.874Z,2.10
2022-07-30T21:31:08.684Z,2.83
2022-07-30T21:33:40.954Z,2.33
2022-07-30T21:36:13.092Z,2.60
2022-07-30T21:38:46.198Z,2.50
2022-07-30T21:41:21.511Z,2.37
2022-07-30T21:44:12.346Z,2.33
2022-07-30T21:46:44.949Z,2.20
2022-07-30T21:49:16.910Z,2.50
2022-07-30T21:51:48.989Z,2.60
2022-07-30T21:54:29.339Z,2.87
2022-07-30T21:57:02.877Z,3.67
2022-07-30T21:59:34.641Z,2.40
2022-07-30T22:02:06.587Z,2.50
2022-07-30T22:04:50.494Z,2.40
2022-07-30T22:07:22.799Z,2.83
2022-07-30T22:09:54.542Z,2.50
2022-07-30T22:12:28.934Z,2.80
2022-07-30T22:15:01.009Z,2.43
2022-07-30T22:17:36.814Z,2.57
2022-07-30T22:20:11.396Z,2.80
2022-07-30T22:22:43.904Z,2.87
2022-07-30T22:25:16.039Z,3.93
2022-07-30T22:27:56.970Z,2.70
2022-07-30T22:30:30.423Z,2.70
2022-07-30T22:33:21.827Z,2.20
2022-07-30T22:35:55.770Z,2.50
2022-07-30T22:38:28.669Z,2.27
2022-07-30T22:41:01.479Z,2.80
2022-07-30T22:43:35.580Z,2.20
2022-07-30T22:46:27.236Z,2.90
2022-07-30T22:49:02.529Z,2.40
2022-07-30T22:52:01.234Z,2.40
2022-07-30T22:54:27.082Z,2.43
2022-07-30T22:57:04.168Z,2.30
2022-07-30T23:00:00.407Z,2.50
2022-07-30T23:02:28.080Z,2.27
2022-07-30T23:04:59.835Z,2.80
2022-07-30T23:07:39.992Z,2.97
2022-07-30T23:10:18.304Z,2.30
2022-07-30T23:12:15.621Z,2.10
2022-07-30T23:12:18.744Z,2.83
2022-07-30T23:12:31.099Z,1.87
2022-07-30T23:12:51.759Z,2.40
2022-07-30T23:15:24.585Z,2.60
2022-07-30T23:17:56.365Z,3.30
2022-07-30T23:20:28.103Z,2.97
2022-07-30T23:23:01.504Z,3.03
2022-07-30T23:25:38.630Z,3.30
2022-07-30T23:28:11.551Z,3.10
2022-07-30T23:30:43.322Z,3.30
2022-07-30T23:33:17.968Z,2.70
2022-07-30T23:35:50.470Z,3.83
2022-07-30T23:38:22.709Z,2.83
2022-07-30T23:40:54.689Z,2.57
2022-07-30T23:43:26.573Z,2.90
2022-07-30T23:45:58.391Z,2.90
2022-07-30T23:48:31.594Z,2.83
2022-07-30T23:51:03.407Z,3.07
2022-07-30T23:53:35.129Z,2.63
2022-07-30T23:56:07.929Z,3.23
2022-07-30T23:58:40.791Z,4.80
